Time;durP1;ratioP1;P1;durP2;ratioP2;P2;SDS_P1;SDS_P2;PMS_P1;PMS_P2;Temp;Humidity;BMP_temperature;BMP_pressure;BME280_temperature;BME280_humidity;BME280_pressure;Samples;Min_cycle;Max_cycle;Signal;HPM_P1;HPM_P2
2023/12/14 00:02:45;;;;;;;0.10;0.10;;;;;;;7.20;100.00;98143.28;5116134;28;20205;-53
2023/12/14 00:05:32;;;;;;;0.00;0.00;;;;;;;7.12;100.00;98149.06;5115904;28;20202;-52
2023/12/14 00:08:19;;;;;;;0.00;0.00;;;;;;;7.14;100.00;98141.03;5115757;28;20222;-53
2023/12/14 00:11:08;;;;;;;0.00;0.00;;;;;;;7.05;100.00;98147.78;5115890;28;20190;-53
2023/12/14 00:13:55;;;;;;;0.00;0.00;;;;;;;7.18;100.00;98153.91;5114678;28;20197;-53
2023/12/14 00:16:42;;;;;;;0.00;0.00;;;;;;;7.07;100.00;98156.44;5115811;28;20251;-53
2023/12/14 00:19:29;;;;;;;0.00;0.00;;;;;;;7.52;100.00;98159.56;5114968;28;20295;-52
2023/12/14 00:22:15;;;;;;;0.00;0.00;;;;;;;7.47;100.00;98172.22;5115701;28;20304;-53
2023/12/14 00:25:03;;;;;;;0.00;0.00;;;;;;;7.17;100.00;98173.31;5115447;28;20197;-53
2023/12/14 00:27:51;;;;;;;0.00;0.00;;;;;;;7.32;100.00;98176.69;5114168;28;20249;-53
2023/12/14 00:30:38;;;;;;;0.00;0.00;;;;;;;7.23;100.00;98172.03;5115665;28;20194;-53
2023/12/14 00:33:25;;;;;;;0.00;0.00;;;;;;;7.12;100.00;98178.00;5115475;28;20197;-53
2023/12/14 00:36:18;;;;;;;0.10;0.10;;;;;;;7.10;100.00;98181.69;5115457;28;20208;-53
2023/12/14 00:39:05;;;;;;;0.00;0.00;;;;;;;6.88;100.00;98175.22;5115496;28;20187;-52
2023/12/14 00:41:52;;;;;;;0.00;0.00;;;;;;;6.95;100.00;98191.47;5115336;28;20232;-52
2023/12/14 00:44:40;;;;;;;0.00;0.00;;;;;;;7.24;100.00;98188.69;5114987;28;20194;-53
2023/12/14 00:47:27;;;;;;;0.00;0.00;;;;;;;7.18;100.00;98196.06;5114962;28;20190;-53
2023/12/14 00:50:14;;;;;;;0.00;0.00;;;;;;;7.37;100.00;98203.59;5114599;28;20267;-53
2023/12/14 00:53:01;;;;;;;0.00;0.00;;;;;;;7.52;100.00;98208.78;5114795;28;20189;-53
2023/12/14 00:55:48;;;;;;;0.10;0.10;;;;;;;7.50;100.00;98216.78;5114502;28;20260;-53
2023/12/14 00:58:34;;;;;;;0.00;0.00;;;;;;;7.27;100.00;98217.47;5113178;28;20194;-53
2023/12/14 01:01:22;;;;;;;0.00;0.00;;;;;;;7.39;100.00;98229.81;5114296;28;20191;-53
2023/12/14 01:04:10;;;;;;;0.00;0.00;;;;;;;7.38;100.00;98236.88;5114573;28;20190;-52
2023/12/14 01:06:56;;;;;;;0.00;0.00;;;;;;;7.23;100.00;98242.28;5114440;28;20202;-52
2023/12/14 01:09:43;;;;;;;0.00;0.00;;;;;;;7.24;100.00;98236.97;5114052;28;20234;-53
2023/12/14 01:12:30;;;;;;;0.00;0.00;;;;;;;7.19;100.00;98249.56;5112904;28;20198;-53
2023/12/14 01:15:17;;;;;;;0.00;0.00;;;;;;;7.19;100.00;98254.84;5114183;28;20272;-52
2023/12/14 01:18:06;;;;;;;0.00;0.00;;;;;;;7.36;100.00;98262.50;5113940;28;20222;-53
2023/12/14 01:20:52;;;;;;;0.00;0.00;;;;;;;7.46;100.00;98265.38;5114098;28;20309;-53
2023/12/14 01:23:39;;;;;;;0.00;0.00;;;;;;;7.40;100.00;98274.50;5113896;28;20194;-53
2023/12/14 01:26:26;;;;;;;0.00;0.00;;;;;;;7.39;100.00;98277.25;5113980;28;20186;-53
2023/12/14 01:29:13;;;;;;;0.00;0.00;;;;;;;7.21;100.00;98276.63;5112377;28;20225;-53
2023/12/14 01:32:00;;;;;;;0.00;0.00;;;;;;;7.62;100.00;98278.34;5113772;28;20194;-52
2023/12/14 01:34:48;;;;;;;0.00;0.00;;;;;;;7.43;100.00;98284.84;5113812;28;20320;-53
2023/12/14 01:37:35;;;;;;;0.00;0.00;;;;;;;7.29;100.00;98282.25;5113722;28;20308;-53
2023/12/14 01:40:22;;;;;;;0.00;0.00;;;;;;;7.44;100.00;98293.59;5113584;28;20197;-53
2023/12/14 01:43:10;;;;;;;0.00;0.00;;;;;;;7.33;100.00;98299.53;5112476;28;20263;-53
2023/12/14 01:45:56;;;;;;;0.00;0.00;;;;;;;7.25;100.00;98301.84;5113624;28;20190;-53
2023/12/14 01:48:43;;;;;;;0.00;0.00;;;;;;;7.11;100.00;98294.81;5113400;28;20226;-53
2023/12/14 01:51:33;;;;;;;0.10;0.10;;;;;;;7.10;100.00;98308.09;5113401;28;20683;-53
2023/12/14 01:54:20;;;;;;;0.10;0.10;;;;;;;6.99;100.00;98307.91;5113446;28;20304;-53
2023/12/14 01:57:07;;;;;;;0.00;0.00;;;;;;;7.02;100.00;98311.19;5113311;28;20197;-53
2023/12/14 01:59:54;;;;;;;0.10;0.10;;;;;;;6.97;100.00;98313.28;5113239;28;20182;-53
2023/12/14 02:02:41;;;;;;;0.10;0.10;;;;;;;6.94;100.00;98320.50;5113207;28;20267;-53
2023/12/14 02:05:28;;;;;;;0.00;0.00;;;;;;;7.16;100.00;98326.13;5113314;28;20664;-52
2023/12/14 02:08:16;;;;;;;0.00;0.00;;;;;;;6.93;100.00;98322.31;5113002;28;20653;-53
2023/12/14 02:11:03;;;;;;;0.03;0.03;;;;;;;6.84;100.00;98325.50;5113185;28;20198;-53
2023/12/14 02:13:50;;;;;;;0.00;0.00;;;;;;;7.09;100.00;98315.13;5111895;28;20301;-53
2023/12/14 02:16:38;;;;;;;0.10;0.10;;;;;;;7.08;100.00;98323.97;5113224;28;20190;-53
2023/12/14 02:19:25;;;;;;;0.00;0.00;;;;;;;7.13;100.00;98323.69;5112686;28;20218;-53
2023/12/14 02:22:12;;;;;;;0.00;0.00;;;;;;;7.03;100.00;98315.50;5113044;28;20196;-53
2023/12/14 02:25:00;;;;;;;0.10;0.10;;;;;;;6.98;100.00;98314.13;5112987;28;20193;-52
2023/12/14 02:27:48;;;;;;;0.00;0.00;;;;;;;6.85;100.00;98320.19;5110546;28;20198;-53
2023/12/14 02:30:35;;;;;;;0.00;0.00;;;;;;;6.87;100.00;98330.59;5112959;28;20206;-52
2023/12/14 02:33:22;;;;;;;0.00;0.00;;;;;;;6.96;100.00;98329.19;5112884;28;20201;-52
2023/12/14 02:36:09;;;;;;;0.10;0.10;;;;;;;6.95;100.00;98340.63;5112914;28;20202;-54
2023/12/14 02:38:56;;;;;;;0.00;0.00;;;;;;;6.68;100.00;98335.31;5112882;28;20189;-53
2023/12/14 02:41:44;;;;;;;0.00;0.00;;;;;;;6.66;100.00;98343.31;5112581;28;20206;-52
2023/12/14 02:44:31;;;;;;;0.10;0.10;;;;;;;6.74;100.00;98345.44;5111003;28;20684;-53
2023/12/14 02:47:18;;;;;;;0.03;0.03;;;;;;;6.84;100.00;98359.72;5112587;28;20632;-52
2023/12/14 02:50:06;;;;;;;0.00;0.00;;;;;;;6.57;100.00;98357.88;5112187;28;20214;-53
2023/12/14 02:52:52;;;;;;;0.00;0.00;;;;;;;6.70;100.00;98352.69;5112609;28;20197;-53
2023/12/14 02:55:39;;;;;;;0.00;0.00;;;;;;;6.76;100.00;98362.00;5112606;28;20324;-53
2023/12/14 02:58:28;;;;;;;0.10;0.10;;;;;;;6.70;100.00;98360.56;5111231;28;20320;-52
2023/12/14 03:01:15;;;;;;;0.00;0.00;;;;;;;6.93;100.00;98367.06;5112637;28;20388;-52
2023/12/14 03:04:02;;;;;;;0.10;0.10;;;;;;;6.96;100.00;98371.31;5112616;28;20536;-53
2023/12/14 03:06:48;;;;;;;0.00;0.00;;;;;;;6.69;100.00;98376.47;5112236;28;20232;-53
2023/12/14 03:09:35;;;;;;;0.00;0.00;;;;;;;6.62;100.00;98383.03;5112423;28;20222;-53
2023/12/14 03:12:22;;;;;;;0.10;0.10;;;;;;;6.75;100.00;98392.72;5111201;28;20684;-53
2023/12/14 03:15:11;;;;;;;0.00;0.00;;;;;;;6.81;100.00;98404.66;5112224;28;20386;-52
2023/12/14 03:17:58;;;;;;;0.00;0.00;;;;;;;6.86;100.00;98387.66;5112217;28;20343;-53
2023/12/14 03:20:45;;;;;;;0.10;0.10;;;;;;;6.77;100.00;98390.00;5112415;28;20206;-53
2023/12/14 03:23:31;;;;;;;0.00;0.00;;;;;;;6.66;100.00;98389.78;5112299;28;20313;-53
2023/12/14 03:26:18;;;;;;;0.10;0.10;;;;;;;6.81;100.00;98396.75;5112440;28;20193;-53
2023/12/14 03:29:05;;;;;;;0.00;0.00;;;;;;;6.89;100.00;98395.34;5111081;28;20206;-53
2023/12/14 03:31:53;;;;;;;0.00;0.00;;;;;;;6.81;100.00;98408.13;5112257;28;20316;-53
2023/12/14 03:34:40;;;;;;;0.00;0.00;;;;;;;6.88;100.00;98406.84;5112265;28;20768;-53
2023/12/14 03:37:27;;;;;;;0.00;0.00;;;;;;;6.62;100.00;98404.06;5112233;28;20198;-53
2023/12/14 03:40:14;;;;;;;0.10;0.10;;;;;;;6.78;100.00;98423.28;5111912;28;20198;-53
2023/12/14 03:43:01;;;;;;;0.00;0.00;;;;;;;6.72;100.00;98426.25;5110878;28;20198;-52
2023/12/14 03:45:48;;;;;;;0.00;0.00;;;;;;;6.75;100.00;98419.03;5111185;28;20189;-52
2023/12/14 03:48:36;;;;;;;0.10;0.10;;;;;;;6.75;100.00;98418.19;5112079;28;20199;-52
2023/12/14 03:51:23;;;;;;;0.00;0.00;;;;;;;6.83;100.00;98424.66;5112092;28;20195;-53
2023/12/14 03:54:09;;;;;;;0.00;0.00;;;;;;;6.79;100.00;98428.44;5112119;28;20190;-53
2023/12/14 03:56:56;;;;;;;0.00;0.00;;;;;;;6.77;100.00;98432.97;5115530;28;20206;-53
2023/12/14 03:59:43;;;;;;;0.00;0.00;;;;;;;6.58;100.00;98435.84;5115918;28;20190;-52
2023/12/14 04:02:30;;;;;;;0.00;0.00;;;;;;;6.47;100.00;98440.91;5115829;28;20198;-53
2023/12/14 04:05:18;;;;;;;0.10;0.10;;;;;;;6.84;100.00;98442.16;5115240;28;20369;-52
2023/12/14 04:08:05;;;;;;;0.00;0.00;;;;;;;6.48;100.00;98444.38;5115552;28;20284;-53
2023/12/14 04:10:52;;;;;;;0.10;0.10;;;;;;;6.67;100.00;98450.25;5115205;28;20210;-53
2023/12/14 04:13:39;;;;;;;0.00;0.00;;;;;;;6.43;100.00;98451.66;5114056;28;20668;-53
2023/12/14 04:16:26;;;;;;;0.00;0.00;;;;;;;6.37;100.00;98457.28;5115448;28;20198;-53
2023/12/14 04:19:13;;;;;;;0.00;0.00;;;;;;;6.32;100.00;98468.06;5114986;28;20340;-53
2023/12/14 04:22:01;;;;;;;0.00;0.00;;;;;;;6.56;100.00;98473.69;5114956;28;20765;-53
2023/12/14 04:24:49;;;;;;;0.00;0.00;;;;;;;6.63;100.00;98482.91;5115227;28;20195;-53
2023/12/14 04:27:35;;;;;;;0.00;0.00;;;;;;;6.51;100.00;98486.28;5113746;28;20194;-53
2023/12/14 04:30:22;;;;;;;0.00;0.00;;;;;;;6.46;100.00;98485.69;5114670;28;20288;-53
2023/12/14 04:33:09;;;;;;;0.00;0.00;;;;;;;6.49;100.00;98496.03;5115059;28;20189;-53
2023/12/14 04:35:56;;;;;;;0.00;0.00;;;;;;;6.50;100.00;98493.31;5115221;28;20669;-53
2023/12/14 04:38:46;;;;;;;0.10;0.10;;;;;;;6.66;100.00;98498.53;5114733;28;20293;-52
2023/12/14 04:41:33;;;;;;;0.10;0.10;;;;;;;6.84;100.00;98502.69;5114933;28;20186;-52
2023/12/14 04:44:21;;;;;;;0.00;0.00;;;;;;;6.53;100.00;98501.03;5113635;28;20190;-53
2023/12/14 04:47:08;;;;;;;0.00;0.00;;;;;;;6.79;100.00;98496.03;5114457;28;20190;-52
2023/12/14 04:49:55;;;;;;;0.00;0.00;;;;;;;6.65;100.00;98506.50;5114582;28;20264;-53
2023/12/14 04:52:42;;;;;;;0.00;0.00;;;;;;;6.59;100.00;98513.81;5114668;28;20297;-53
2023/12/14 04:55:30;;;;;;;0.00;0.00;;;;;;;6.89;100.00;98515.59;5114640;28;20198;-53
2023/12/14 04:58:17;;;;;;;0.00;0.00;;;;;;;7.03;100.00;98520.88;5113426;28;20185;-53
2023/12/14 05:01:04;;;;;;;0.03;0.03;;;;;;;6.81;100.00;98528.34;5114602;28;20668;-52
2023/12/14 05:03:51;;;;;;;0.00;0.00;;;;;;;6.64;100.00;98526.69;5114301;28;20194;-53
2023/12/14 05:06:39;;;;;;;0.10;0.10;;;;;;;6.67;100.00;98530.97;5113971;28;20339;-53
2023/12/14 05:09:26;;;;;;;0.10;0.10;;;;;;;6.70;100.00;98533.41;5114339;28;20240;-53
2023/12/14 05:12:14;;;;;;;0.00;0.00;;;;;;;6.90;100.00;98535.72;5112972;28;20194;-53
2023/12/14 05:15:01;;;;;;;0.00;0.00;;;;;;;6.83;100.00;98547.53;5114197;28;20239;-52
2023/12/14 05:17:48;;;;;;;0.10;0.10;;;;;;;6.56;100.00;98542.97;5113760;28;20248;-53
2023/12/14 05:20:35;;;;;;;0.00;0.00;;;;;;;6.89;100.00;98547.19;5114201;28;20259;-53
2023/12/14 05:23:23;;;;;;;0.00;0.00;;;;;;;6.95;100.00;98552.09;5114092;28;20194;-52
2023/12/14 05:26:10;;;;;;;0.00;0.00;;;;;;;6.84;100.00;98557.97;5113966;28;20198;-52
2023/12/14 05:28:58;;;;;;;0.00;0.00;;;;;;;6.86;100.00;98563.16;5112591;28;20257;-52
2023/12/14 05:31:45;;;;;;;0.00;0.00;;;;;;;6.82;100.00;98566.91;5113715;28;20218;-52
2023/12/14 05:34:32;;;;;;;0.10;0.10;;;;;;;6.74;100.00;98569.97;5113858;28;20190;-52
2023/12/14 05:37:19;;;;;;;0.00;0.00;;;;;;;6.84;100.00;98572.91;5113688;28;20217;-52
2023/12/14 05:40:07;;;;;;;0.00;0.00;;;;;;;6.67;100.00;98573.91;5113705;28;20191;-53
2023/12/14 05:42:56;;;;;;;0.00;0.00;;;;;;;6.85;100.00;98586.00;5111418;28;20244;-53
2023/12/14 05:45:44;;;;;;;0.00;0.00;;;;;;;6.82;100.00;98585.31;5113556;28;20194;-52
2023/12/14 05:48:31;;;;;;;0.00;0.00;;;;;;;6.86;100.00;98582.44;5113518;28;20242;-52
2023/12/14 05:51:28;;;;;;;0.10;0.10;;;;;;;7.13;100.00;98593.09;5113278;28;20288;-52
2023/12/14 05:54:14;;;;;;;0.10;0.10;;;;;;;6.84;100.00;98592.19;5113417;28;20236;-52
2023/12/14 05:57:01;;;;;;;0.10;0.10;;;;;;;7.05;100.00;98605.91;5113364;28;20691;-52
2023/12/14 05:59:48;;;;;;;0.00;0.00;;;;;;;6.94;100.00;98603.03;5113376;28;20202;-52
2023/12/14 06:02:37;;;;;;;0.00;0.00;;;;;;;6.79;100.00;98612.66;5113298;28;20193;-52
2023/12/14 06:05:25;;;;;;;0.00;0.00;;;;;;;6.87;100.00;98615.72;5113318;28;20190;-52
2023/12/14 06:08:12;;;;;;;0.00;0.00;;;;;;;6.72;100.00;98624.47;5113141;28;20193;-52
2023/12/14 06:10:59;;;;;;;0.00;0.00;;;;;;;6.60;100.00;98622.53;5112981;28;20230;-52
2023/12/14 06:13:46;;;;;;;0.00;0.00;;;;;;;6.49;100.00;98631.03;5111840;28;20198;-52
2023/12/14 06:16:33;;;;;;;0.10;0.10;;;;;;;6.59;100.00;98636.63;5113000;28;20290;-51
2023/12/14 06:19:21;;;;;;;0.00;0.00;;;;;;;6.62;100.00;98646.97;5112093;28;20221;-52
2023/12/14 06:22:08;;;;;;;0.00;0.00;;;;;;;6.75;100.00;98642.72;5113237;28;20297;-52
2023/12/14 06:24:55;;;;;;;0.10;0.10;;;;;;;6.77;100.00;98661.91;5112815;28;20198;-51
2023/12/14 06:27:42;;;;;;;0.00;0.00;;;;;;;6.71;100.00;98661.41;5111463;28;20198;-52
2023/12/14 06:30:29;;;;;;;0.10;0.10;;;;;;;6.87;100.00;98671.00;5112920;28;20205;-51
2023/12/14 06:33:16;;;;;;;0.00;0.00;;;;;;;6.81;100.00;98668.69;5112986;28;20197;-52
2023/12/14 06:36:06;;;;;;;0.00;0.00;;;;;;;6.67;100.00;98676.53;5112725;28;20319;-52
2023/12/14 06:38:52;;;;;;;0.10;0.10;;;;;;;6.54;100.00;98671.09;5112841;28;20518;-52
2023/12/14 06:41:40;;;;;;;0.00;0.00;;;;;;;6.60;100.00;98678.66;5112528;28;20300;-52
2023/12/14 06:44:27;;;;;;;0.00;0.00;;;;;;;6.69;100.00;98682.56;5111868;28;20309;-52
2023/12/14 06:47:14;;;;;;;0.03;0.03;;;;;;;6.59;100.00;98684.84;5112638;28;20190;-52
2023/12/14 06:50:01;;;;;;;0.10;0.10;;;;;;;6.64;100.00;98692.47;5112423;28;20236;-52
2023/12/14 06:52:49;;;;;;;0.00;0.00;;;;;;;6.88;100.00;98696.38;5112632;28;20335;-52
2023/12/14 06:55:36;;;;;;;0.00;0.00;;;;;;;7.14;100.00;98702.81;5112519;28;20201;-52
2023/12/14 06:58:23;;;;;;;0.00;0.00;;;;;;;6.88;100.00;98704.28;5111078;28;20286;-51
2023/12/14 07:01:14;;;;;;;0.10;0.10;;;;;;;6.99;100.00;98701.03;5112473;28;20201;-52
2023/12/14 07:04:02;;;;;;;0.10;0.10;;;;;;;7.17;100.00;98714.94;5112614;28;20193;-54
2023/12/14 07:06:53;;;;;;;0.10;0.10;;;;;;;7.25;100.00;98714.50;5112429;28;20198;-52
2023/12/14 07:09:41;;;;;;;0.00;0.00;;;;;;;7.20;100.00;98712.13;5112372;28;20676;-52
2023/12/14 07:12:27;;;;;;;0.10;0.10;;;;;;;7.40;100.00;98724.97;5110963;28;20222;-52
2023/12/14 07:15:14;;;;;;;0.10;0.10;;;;;;;7.45;100.00;98714.19;5112356;28;20198;-52
2023/12/14 07:18:01;;;;;;;0.00;0.00;;;;;;;7.34;100.00;98732.41;5112212;28;20300;-52
2023/12/14 07:20:48;;;;;;;0.00;0.00;;;;;;;7.27;100.00;98739.81;5112405;28;20189;-52
2023/12/14 07:23:36;;;;;;;0.10;0.10;;;;;;;7.10;100.00;98751.28;5112053;28;20206;-52
2023/12/14 07:26:24;;;;;;;0.00;0.00;;;;;;;7.29;100.00;98752.88;5112219;28;20181;-51
2023/12/14 07:29:11;;;;;;;0.00;0.00;;;;;;;7.11;100.00;98754.78;5111822;28;20224;-52
2023/12/14 07:31:57;;;;;;;0.00;0.00;;;;;;;6.92;100.00;98764.63;5115810;28;20259;-52
2023/12/14 07:34:45;;;;;;;0.10;0.10;;;;;;;6.66;100.00;98773.94;5116189;28;20198;-52
2023/12/14 07:37:32;;;;;;;0.10;0.10;;;;;;;6.77;100.00;98780.34;5116014;28;20209;-52
2023/12/14 07:40:19;;;;;;;0.10;0.10;;;;;;;6.54;100.00;98796.53;5116113;28;20236;-51
2023/12/14 07:43:08;;;;;;;0.00;0.00;;;;;;;6.67;100.00;98802.00;5114520;28;20216;-52
2023/12/14 07:45:54;;;;;;;0.00;0.00;;;;;;;6.62;100.00;98811.91;5115788;28;20244;-52
2023/12/14 07:48:41;;;;;;;0.00;0.00;;;;;;;6.85;100.00;98815.00;5115799;28;20205;-52
2023/12/14 07:51:28;;;;;;;0.00;0.00;;;;;;;7.06;100.00;98817.41;5115689;28;20787;-51
2023/12/14 07:54:15;;;;;;;0.00;0.00;;;;;;;7.02;100.00;98821.13;5115931;28;20190;-52
2023/12/14 07:57:02;;;;;;;0.00;0.00;;;;;;;6.89;100.00;98819.16;5115087;28;20316;-52
2023/12/14 07:59:50;;;;;;;0.00;0.00;;;;;;;6.93;100.00;98824.25;5115989;28;20347;-52
2023/12/14 08:02:37;;;;;;;0.10;0.10;;;;;;;7.14;100.00;98828.34;5115640;28;20256;-51
2023/12/14 08:05:24;;;;;;;0.10;0.10;;;;;;;7.04;100.00;98829.78;5115718;28;20197;-52
2023/12/14 08:08:11;;;;;;;0.00;0.00;;;;;;;7.09;100.00;98838.28;5115518;28;20213;-52
2023/12/14 08:10:58;;;;;;;0.00;0.00;;;;;;;7.05;100.00;98837.63;5115433;28;20194;-52
2023/12/14 08:13:45;;;;;;;0.00;0.00;;;;;;;7.16;100.00;98847.56;5114202;28;20227;-52
2023/12/14 08:16:33;;;;;;;0.00;0.00;;;;;;;7.02;100.00;98855.34;5115537;28;20206;-52
2023/12/14 08:19:20;;;;;;;0.00;0.00;;;;;;;7.23;100.00;98864.69;5114902;28;20345;-52
2023/12/14 08:22:10;;;;;;;0.00;0.00;;;;;;;7.07;100.00;98867.34;5115212;28;20617;-52
2023/12/14 08:24:58;;;;;;;0.10;0.10;;;;;;;7.14;100.00;98870.47;5115018;28;20279;-52
2023/12/14 08:27:44;;;;;;;0.10;0.10;;;;;;;7.25;100.00;98877.81;5113799;28;20208;-52
2023/12/14 08:30:31;;;;;;;0.00;0.00;;;;;;;7.19;100.00;98881.63;5115114;28;20292;-52
2023/12/14 08:33:19;;;;;;;0.10;0.10;;;;;;;7.25;100.00;98877.81;5114757;28;20259;-52
2023/12/14 08:36:07;;;;;;;0.00;0.00;;;;;;;7.50;100.00;98883.41;5114892;28;20547;-52
2023/12/14 08:38:54;;;;;;;0.00;0.00;;;;;;;7.39;100.00;98878.72;5114956;28;20212;-51
2023/12/14 08:41:41;;;;;;;0.00;0.00;;;;;;;7.36;100.00;98892.09;5114003;28;20202;-51
2023/12/14 08:44:27;;;;;;;0.00;0.00;;;;;;;7.29;100.00;98895.13;5114587;28;20264;-52
2023/12/14 08:47:14;;;;;;;0.00;0.00;;;;;;;7.29;100.00;98900.41;5114484;28;20209;-51
2023/12/14 08:50:04;;;;;;;0.10;0.10;;;;;;;7.48;100.00;98909.00;5114711;28;20311;-52
2023/12/14 08:52:50;;;;;;;0.00;0.00;;;;;;;7.60;100.00;98915.34;5114470;28;20249;-52
2023/12/14 08:55:38;;;;;;;0.00;0.00;;;;;;;7.51;100.00;98924.63;5114199;28;20244;-52
2023/12/14 08:58:25;;;;;;;0.00;0.00;;;;;;;7.45;100.00;98932.88;5113328;28;20754;-51
2023/12/14 09:01:12;;;;;;;0.00;0.00;;;;;;;7.97;100.00;98937.88;5114663;28;20272;-52
2023/12/14 09:04:00;;;;;;;0.10;0.10;;;;;;;7.58;100.00;98938.31;5114283;28;20861;-52
2023/12/14 09:06:48;;;;;;;0.00;0.00;;;;;;;7.76;100.00;98942.56;5114443;28;20198;-52
2023/12/14 09:09:35;;;;;;;0.00;0.00;;;;;;;7.76;100.00;98953.13;5114421;28;20194;-52
2023/12/14 09:12:22;;;;;;;0.00;0.00;;;;;;;7.74;100.00;98961.13;5112889;28;20218;-52
2023/12/14 09:15:10;;;;;;;0.10;0.10;;;;;;;7.30;100.00;98966.16;5114342;28;20194;-52
2023/12/14 09:17:57;;;;;;;0.00;0.00;;;;;;;7.43;100.00;98983.03;5113916;28;20229;-51
2023/12/14 09:20:44;;;;;;;0.00;0.00;;;;;;;7.62;100.00;98984.66;5113991;28;20210;-52
2023/12/14 09:23:32;;;;;;;0.00;0.00;;;;;;;7.51;100.00;98993.13;5114164;28;20214;-52
2023/12/14 09:26:19;;;;;;;0.00;0.00;;;;;;;7.49;100.00;98989.75;5114195;28;20218;-52
2023/12/14 09:29:06;;;;;;;0.00;0.00;;;;;;;7.76;100.00;99003.22;5112538;28;20198;-52
2023/12/14 09:31:54;;;;;;;0.00;0.00;;;;;;;7.64;100.00;99007.38;5114027;28;20232;-52
2023/12/14 09:34:41;;;;;;;0.10;0.10;;;;;;;7.75;100.00;99012.91;5114007;28;20324;-52
2023/12/14 09:37:28;;;;;;;0.00;0.00;;;;;;;7.52;100.00;99015.91;5114011;28;20193;-51
2023/12/14 09:40:18;;;;;;;0.00;0.00;;;;;;;7.55;100.00;99031.59;5113892;28;20194;-52
2023/12/14 09:43:05;;;;;;;0.00;0.00;;;;;;;7.41;100.00;99026.19;5111216;28;20202;-52
2023/12/14 09:45:56;;;;;;;0.00;0.00;;;;;;;7.66;100.00;99038.91;5113448;28;20213;-54
2023/12/14 09:48:43;;;;;;;0.00;0.00;;;;;;;7.59;100.00;99045.44;5113673;28;20696;-51
2023/12/14 09:51:33;;;;;;;0.00;0.00;;;;;;;7.53;100.00;99045.75;5112792;28;20324;-52
2023/12/14 09:54:19;;;;;;;0.10;0.10;;;;;;;7.63;100.00;99050.47;5113467;28;20225;-52
2023/12/14 09:57:08;;;;;;;0.00;0.00;;;;;;;8.08;100.00;99053.31;5112209;28;20398;-52
2023/12/14 09:59:55;;;;;;;0.00;0.00;;;;;;;7.77;100.00;99056.78;5113538;28;20198;-52
2023/12/14 10:02:42;;;;;;;0.00;0.00;;;;;;;7.62;100.00;99058.44;5113556;28;20194;-52
2023/12/14 10:05:30;;;;;;;0.00;0.00;;;;;;;7.77;100.00;99059.41;5113490;28;20194;-53
2023/12/14 10:08:17;;;;;;;0.00;0.00;;;;;;;8.09;100.00;99065.56;5113422;28;20232;-53
2023/12/14 10:11:16;;;;;;;0.00;0.00;;;;;;;8.00;100.00;99069.56;5113338;28;20206;-53
2023/12/14 10:14:18;;;;;;;0.00;0.00;;;;;;;8.53;100.00;99071.88;5111867;28;20214;-53
2023/12/14 10:17:17;;;;;;;0.00;0.00;;;;;;;8.59;100.00;99066.25;5113171;28;20197;-53
2023/12/14 10:20:05;;;;;;;0.00;0.00;;;;;;;8.22;100.00;99072.72;5112179;28;20202;-52
2023/12/14 10:22:55;;;;;;;0.00;0.00;;;;;;;8.27;100.00;99069.81;5112621;28;20198;-53
2023/12/14 10:25:43;;;;;;;0.00;0.00;;;;;;;8.39;100.00;99068.31;5113136;28;20193;-52
2023/12/14 10:28:29;;;;;;;0.00;0.00;;;;;;;8.45;100.00;99076.72;5112025;28;20276;-53
2023/12/14 10:31:18;;;;;;;0.10;0.10;;;;;;;8.40;100.00;99075.31;5112900;28;20680;-53
2023/12/14 10:34:05;;;;;;;0.00;0.00;;;;;;;8.67;100.00;99080.78;5113079;28;20222;-53
2023/12/14 10:36:53;;;;;;;0.10;0.10;;;;;;;8.66;100.00;99077.28;5113374;28;20205;-53
2023/12/14 10:39:43;;;;;;;0.00;0.00;;;;;;;9.02;100.00;99073.47;5113207;28;20206;-52
2023/12/14 10:42:30;;;;;;;0.00;0.00;;;;;;;8.98;100.00;99069.31;5112047;28;20673;-54
2023/12/14 10:45:18;;;;;;;0.00;0.00;;;;;;;8.93;100.00;99072.19;5113305;28;20680;-53
2023/12/14 10:48:13;;;;;;;0.10;0.10;;;;;;;8.88;100.00;99071.63;5113435;28;20198;-53
2023/12/14 10:51:03;;;;;;;0.00;0.00;;;;;;;9.18;100.00;99076.91;5113230;28;20201;-53
2023/12/14 10:53:51;;;;;;;0.00;0.00;;;;;;;9.29;100.00;99078.91;5112940;28;20284;-52
2023/12/14 10:56:38;;;;;;;0.00;0.00;;;;;;;9.20;100.00;99082.09;5112772;28;20189;-53
2023/12/14 10:59:25;;;;;;;0.00;0.00;;;;;;;9.21;100.00;99087.28;5113300;28;20668;-53
2023/12/14 11:02:15;;;;;;;0.00;0.00;;;;;;;9.06;100.00;99091.66;5112836;28;20190;-53
2023/12/14 11:05:09;;;;;;;0.00;0.00;;;;;;;9.00;100.00;99099.13;5114481;28;20231;-53
2023/12/14 11:07:58;;;;;;;0.00;0.00;;;;;;;8.86;100.00;99102.53;5117400;28;20186;-53
2023/12/14 11:10:56;;;;;;;0.10;0.10;;;;;;;8.80;100.00;99101.13;5116577;28;20668;-53
2023/12/14 11:13:43;;;;;;;0.00;0.00;;;;;;;8.74;100.00;99095.34;5114631;28;20264;-53
2023/12/14 11:16:30;;;;;;;0.00;0.00;;;;;;;8.58;100.00;99104.13;5117151;28;20197;-53
2023/12/14 11:19:29;;;;;;;0.00;0.00;;;;;;;8.77;100.00;99103.91;5116375;28;20229;-52
2023/12/14 11:22:29;;;;;;;0.00;0.00;;;;;;;8.88;100.00;99116.53;5116145;28;20194;-52
2023/12/14 11:25:16;;;;;;;0.10;0.10;;;;;;;8.71;100.00;99121.94;5116869;28;20197;-53
2023/12/14 11:28:04;;;;;;;0.00;0.00;;;;;;;8.87;100.00;99118.31;5115312;28;20600;-53
2023/12/14 11:30:51;;;;;;;0.00;0.00;;;;;;;8.70;100.00;99123.72;5116857;28;20267;-53
2023/12/14 11:33:42;;;;;;;0.00;0.00;;;;;;;8.85;100.00;99133.38;5116326;28;20215;-53
2023/12/14 11:36:30;;;;;;;0.00;0.00;;;;;;;8.80;100.00;99127.53;5116829;28;20187;-53
2023/12/14 11:39:21;;;;;;;0.00;0.00;;;;;;;8.81;100.00;99128.38;5116516;28;20190;-53
2023/12/14 11:42:10;;;;;;;0.00;0.00;;;;;;;8.98;100.00;99136.19;5114231;28;20191;-53
2023/12/14 11:44:57;;;;;;;0.00;0.00;;;;;;;8.93;100.00;99137.38;5116424;28;20195;-53
2023/12/14 11:47:44;;;;;;;0.00;0.00;;;;;;;9.11;100.00;99136.31;5116526;28;20758;-53
2023/12/14 11:50:31;;;;;;;0.00;0.00;;;;;;;8.97;100.00;99145.03;5116438;28;20193;-53
2023/12/14 11:53:19;;;;;;;0.00;0.00;;;;;;;9.12;100.00;99144.16;5116328;28;20468;-53
2023/12/14 11:56:08;;;;;;;0.00;0.00;;;;;;;9.39;100.00;99138.19;5116461;28;20189;-53
2023/12/14 11:58:55;;;;;;;0.00;0.00;;;;;;;9.20;100.00;99143.72;5111742;28;20194;-53
2023/12/14 12:01:55;;;;;;;0.00;0.00;;;;;;;9.52;100.00;99149.72;5114146;28;20221;-52
2023/12/14 12:04:51;;;;;;;0.00;0.00;;;;;;;9.60;100.00;99144.00;5115138;28;20309;-53
2023/12/14 12:07:38;;;;;;;0.00;0.00;;;;;;;9.41;100.00;99134.50;5115263;28;20311;-53
2023/12/14 12:10:25;;;;;;;0.00;0.00;;;;;;;9.41;100.00;99125.72;5115210;28;20198;-53
2023/12/14 12:13:15;;;;;;;0.00;0.00;;;;;;;9.50;100.00;99130.47;5113255;28;20198;-52
2023/12/14 12:16:02;;;;;;;0.00;0.00;;;;;;;9.56;100.00;99134.56;5113358;28;20305;-53
2023/12/14 12:18:50;;;;;;;0.10;0.10;;;;;;;9.50;100.00;99143.69;5114869;28;20229;-53
2023/12/14 12:21:37;;;;;;;0.00;0.00;;;;;;;9.28;100.00;99143.28;5114862;28;20248;-53
2023/12/14 12:24:24;;;;;;;0.00;0.00;;;;;;;9.15;100.00;99138.69;5114469;28;20187;-53
2023/12/14 12:27:13;;;;;;;0.00;0.00;;;;;;;9.10;100.00;99143.41;5112426;28;20248;-53
2023/12/14 12:30:01;;;;;;;0.00;0.00;;;;;;;9.14;100.00;99146.72;5114580;28;20265;-53
2023/12/14 12:32:48;;;;;;;0.10;0.10;;;;;;;9.11;100.00;99154.81;5114258;28;20256;-53
2023/12/14 12:35:35;;;;;;;0.00;0.00;;;;;;;8.95;100.00;99151.34;5114860;28;20349;-53
2023/12/14 12:38:22;;;;;;;0.00;0.00;;;;;;;8.93;100.00;99148.81;5114072;28;20198;-52
2023/12/14 12:41:09;;;;;;;0.00;0.00;;;;;;;8.94;100.00;99150.50;5114650;28;20190;-52
2023/12/14 12:43:57;;;;;;;0.10;0.10;;;;;;;8.83;100.00;99142.34;5113175;28;20197;-53
2023/12/14 12:46:45;;;;;;;0.10;0.10;;;;;;;9.03;100.00;99147.34;5113720;28;20215;-52
2023/12/14 12:49:46;;;;;;;0.10;0.10;;;;;;;9.12;100.00;99161.81;5113953;28;20189;-52
2023/12/14 12:52:33;;;;;;;0.00;0.00;;;;;;;9.16;100.00;99163.31;5113489;28;20259;-53
2023/12/14 12:55:20;;;;;;;0.00;0.00;;;;;;;9.58;100.00;99159.09;5113257;28;20218;-53
2023/12/14 12:58:07;;;;;;;0.00;0.00;;;;;;;9.77;100.00;99162.34;5112845;28;20201;-53
2023/12/14 13:00:55;;;;;;;0.10;0.10;;;;;;;9.94;100.00;99170.09;5113678;28;20519;-52
2023/12/14 13:03:43;;;;;;;0.00;0.00;;;;;;;9.49;100.00;99172.88;5114374;28;20201;-52
2023/12/14 13:06:30;;;;;;;0.00;0.00;;;;;;;9.27;100.00;99175.94;5093897;28;20674;-52
2023/12/14 13:09:17;;;;;;;0.00;0.00;;;;;;;9.07;100.00;99172.66;5093503;28;20198;-52
2023/12/14 13:12:05;;;;;;;0.00;0.00;;;;;;;8.82;100.00;99181.13;5092276;28;20194;-52